PWSweather.com
Personal Weather Stations
Station Observations
KNJOAKLA6
Oakland, NJ 07436

Oakland, NJ 07436

Lat: 41.041, Lon: -74.231

Elevation: 280

Station Type: Davis VP 2

http://stratacolorado.com/oaknjwx/

High Low Average
Temperature 69.7°F20.9°C 48.0°F8.9°C 59.9°F15.5°C
Dew Point 62.6°F17.0°C 41.1°F5.1°C 50.9°F10.5°C
Winds 7.0 mph 11.3 kmh Calm Calm 1.0 mph WSW1.6 kmh WSW
Wind Gusts 21.0 mph33.8 kmh -- 8.0 mph12.9 kmh
Humidity 96% 51% 74%
Pressure 30.15 in1021.0 mb 29.61 in1002.7 mb -
Precipitation 0.00 in0.0 mm - -
Hour Temp Dew Point Humidity Winds Wind Gusts Pressure Precip Precip Rate Daily Precip Total
12:00 AM 65.4°F18.6°C 64.2°F17.9°C 96% Calm Calm -- 29.60 in1002.4 mb 0.07 in1.8 mm 0.00 in/hr0.0 mm/hr 0.11 in2.8 mm
12:10 AM 65.2°F18.4°C 64.0°F17.8°C 96% Calm Calm 1.0 mph1.6 kmh 29.61 in1002.7 mb 0.07 in1.8 mm 0.00 in/hr0.0 mm/hr 0.07 in1.8 mm
12:20 AM 65.0°F18.3°C 63.8°F17.7°C 96% Calm Calm 1.0 mph1.6 kmh 29.61 in1002.7 mb 0.07 in1.8 mm 0.00 in/hr0.0 mm/hr 0.07 in1.8 mm
12:30 AM 64.7°F18.2°C 63.5°F17.5°C 96% Calm Calm 2.0 mph3.2 kmh 29.61 in1002.7 mb 0.04 in1.0 mm 0.00 in/hr0.0 mm/hr 0.07 in1.8 mm
12:40 AM 64.3°F17.9°C 63.1°F17.3°C 96% Calm Calm 4.0 mph6.4 kmh 29.61 in1002.7 mb 0.01 in0.3 mm 0.00 in/hr0.0 mm/hr 0.07 in1.8 mm
12:50 AM 64.0°F17.8°C 62.8°F17.1°C 96% Calm Calm 5.0 mph8.0 kmh 29.61 in1002.7 mb 0.01 in0.3 mm 0.00 in/hr0.0 mm/hr 0.07 in1.8 mm
01:00 AM 63.8°F17.7°C 62.6°F17.0°C 96% 1.0 mph N1.6 kmh N 5.0 mph8.0 kmh 29.62 in1003.0 mb 0.00 in0.0 mm 0.00 in/hr0.0 mm/hr 0.07 in1.8 mm
01:10 AM 63.7°F17.6°C 62.5°F16.9°C 96% Calm Calm 1.0 mph1.6 kmh 29.61 in1002.7 mb 0.00 in0.0 mm 0.00 in/hr0.0 mm/hr 0.07 in1.8 mm
01:20 AM 63.5°F17.5°C 62.3°F16.8°C 96% Calm Calm 1.0 mph1.6 kmh 29.62 in1003.0 mb 0.00 in0.0 mm 0.00 in/hr0.0 mm/hr 0.07 in1.8 mm
01:30 AM 63.1°F17.3°C 61.9°F16.6°C 96% Calm Calm 1.0 mph1.6 kmh 29.63 in1003.4 mb 0.00 in0.0 mm 0.00 in/hr0.0 mm/hr 0.07 in1.8 mm
01:40 AM 62.8°F17.1°C 61.3°F16.3°C 95% Calm Calm 1.0 mph1.6 kmh 29.63 in1003.4 mb 0.00 in0.0 mm 0.00 in/hr0.0 mm/hr 0.07 in1.8 mm
01:50 AM 62.4°F16.9°C 60.9°F16.1°C 95% Calm Calm 2.0 mph3.2 kmh 29.63 in1003.4 mb 0.00 in0.0 mm 0.00 in/hr0.0 mm/hr 0.07 in1.8 mm
02:00 AM 61.9°F16.6°C 60.5°F15.8°C 95% Calm Calm 3.0 mph4.8 kmh 29.63 in1003.4 mb 0.00 in0.0 mm 0.00 in/hr0.0 mm/hr 0.07 in1.8 mm
02:10 AM 61.5°F16.4°C 60.1°F15.6°C 95% Calm Calm 1.0 mph1.6 kmh 29.63 in1003.4 mb 0.00 in0.0 mm 0.00 in/hr0.0 mm/hr 0.07 in1.8 mm
02:20 AM 61.2°F16.2°C 59.8°F15.4°C 95% Calm Calm 3.0 mph4.8 kmh 29.63 in1003.4 mb 0.00 in0.0 mm 0.00 in/hr0.0 mm/hr 0.07 in1.8 mm
02:30 AM 60.8°F16.0°C 59.4°F15.2°C 95% Calm Calm 5.0 mph8.0 kmh 29.63 in1003.4 mb 0.00 in0.0 mm 0.00 in/hr0.0 mm/hr 0.07 in1.8 mm
02:40 AM 60.5°F15.8°C 59.1°F15.1°C 95% Calm Calm 3.0 mph4.8 kmh 29.63 in1003.4 mb 0.00 in0.0 mm 0.00 in/hr0.0 mm/hr 0.07 in1.8 mm
02:50 AM 60.3°F15.7°C 58.9°F14.9°C 95% Calm Calm 1.0 mph1.6 kmh 29.63 in1003.4 mb 0.00 in0.0 mm 0.00 in/hr0.0 mm/hr 0.07 in1.8 mm
03:00 AM 60.0°F15.6°C 58.6°F14.8°C 95% Calm Calm 2.0 mph3.2 kmh 29.63 in1003.4 mb 0.00 in0.0 mm 0.00 in/hr0.0 mm/hr 0.07 in1.8 mm
03:10 AM 59.8°F15.4°C 58.4°F14.7°C 95% Calm Calm -- 29.64 in1003.7 mb 0.00 in0.0 mm 0.00 in/hr0.0 mm/hr 0.07 in1.8 mm
03:20 AM 59.6°F15.3°C 58.2°F14.6°C 95% Calm Calm 2.0 mph3.2 kmh 29.64 in1003.7 mb 0.00 in0.0 mm 0.00 in/hr0.0 mm/hr 0.07 in1.8 mm
03:30 AM 59.5°F15.3°C 58.1°F14.5°C 95% Calm Calm -- 29.64 in1003.7 mb 0.00 in0.0 mm 0.00 in/hr0.0 mm/hr 0.07 in1.8 mm
03:40 AM 59.1°F15.1°C 57.7°F14.3°C 95% Calm Calm 1.0 mph1.6 kmh 29.64 in1003.7 mb 0.00 in0.0 mm 0.00 in/hr0.0 mm/hr 0.07 in1.8 mm
03:50 AM 59.0°F15.0°C 57.6°F14.2°C 95% Calm Calm 1.0 mph1.6 kmh 29.65 in1004.1 mb 0.00 in0.0 mm 0.00 in/hr0.0 mm/hr 0.07 in1.8 mm
04:00 AM 59.0°F15.0°C 57.6°F14.2°C 95% Calm Calm 1.0 mph1.6 kmh 29.65 in1004.1 mb 0.00 in0.0 mm 0.00 in/hr0.0 mm/hr 0.07 in1.8 mm
04:10 AM 58.7°F14.8°C 57.3°F14.1°C 95% 2.0 mph SSW3.2 kmh SSW 16.0 mph25.7 kmh 29.66 in1004.4 mb 0.00 in0.0 mm 0.00 in/hr0.0 mm/hr 0.07 in1.8 mm
04:20 AM 58.5°F14.7°C 57.4°F14.1°C 96% Calm Calm 8.0 mph12.9 kmh 29.65 in1004.1 mb 0.00 in0.0 mm 0.00 in/hr0.0 mm/hr 0.07 in1.8 mm
04:30 AM 58.4°F14.7°C 57.3°F14.1°C 96% Calm Calm 3.0 mph4.8 kmh 29.66 in1004.4 mb 0.00 in0.0 mm 0.00 in/hr0.0 mm/hr 0.07 in1.8 mm
04:40 AM 58.3°F14.6°C 57.2°F14.0°C 96% Calm Calm 1.0 mph1.6 kmh 29.66 in1004.4 mb 0.00 in0.0 mm 0.00 in/hr0.0 mm/hr 0.07 in1.8 mm
04:50 AM 58.2°F14.6°C 57.1°F13.9°C 96% Calm Calm -- 29.66 in1004.4 mb 0.00 in0.0 mm 0.00 in/hr0.0 mm/hr 0.07 in1.8 mm
05:00 AM 57.9°F14.4°C 56.8°F13.8°C 96% Calm Calm -- 29.67 in1004.7 mb 0.00 in0.0 mm 0.00 in/hr0.0 mm/hr 0.07 in1.8 mm
05:10 AM 57.7°F14.3°C 56.6°F13.7°C 96% Calm Calm 4.0 mph6.4 kmh 29.67 in1004.7 mb 0.00 in0.0 mm 0.00 in/hr0.0 mm/hr 0.07 in1.8 mm
05:20 AM 57.5°F14.2°C 56.4°F13.6°C 96% 1.0 mph SW1.6 kmh SW 4.0 mph6.4 kmh 29.68 in1005.1 mb 0.00 in0.0 mm 0.00 in/hr0.0 mm/hr 0.07 in1.8 mm
05:30 AM 57.4°F14.1°C 56.3°F13.5°C 96% Calm Calm 4.0 mph6.4 kmh 29.68 in1005.1 mb 0.00 in0.0 mm 0.00 in/hr0.0 mm/hr 0.07 in1.8 mm
05:40 AM 57.3°F14.1°C 56.2°F13.4°C 96% Calm Calm 3.0 mph4.8 kmh 29.68 in1005.1 mb 0.00 in0.0 mm 0.00 in/hr0.0 mm/hr 0.07 in1.8 mm
05:50 AM 57.2°F14.0°C 56.1°F13.4°C 96% Calm Calm 6.0 mph9.7 kmh 29.69 in1005.4 mb 0.00 in0.0 mm 0.00 in/hr0.0 mm/hr 0.07 in1.8 mm
06:00 AM 57.1°F13.9°C 56.0°F13.3°C 96% Calm Calm 4.0 mph6.4 kmh 29.70 in1005.8 mb 0.00 in0.0 mm 0.00 in/hr0.0 mm/hr 0.07 in1.8 mm
06:10 AM 56.9°F13.8°C 55.8°F13.2°C 96% Calm Calm 6.0 mph9.7 kmh 29.70 in1005.8 mb 0.00 in0.0 mm 0.00 in/hr0.0 mm/hr 0.07 in1.8 mm
06:20 AM 56.8°F13.8°C 55.7°F13.2°C 96% Calm Calm 3.0 mph4.8 kmh 29.71 in1006.1 mb 0.00 in0.0 mm 0.00 in/hr0.0 mm/hr 0.07 in1.8 mm
06:30 AM 56.7°F13.7°C 55.6°F13.1°C 96% Calm Calm 5.0 mph8.0 kmh 29.72 in1006.4 mb 0.00 in0.0 mm 0.00 in/hr0.0 mm/hr 0.07 in1.8 mm
06:40 AM 56.6°F13.7°C 55.5°F13.1°C 96% 1.0 mph WSW1.6 kmh WSW 11.0 mph17.7 kmh 29.73 in1006.8 mb 0.00 in0.0 mm 0.00 in/hr0.0 mm/hr 0.07 in1.8 mm
06:50 AM 56.4°F13.6°C 55.3°F12.9°C 96% 2.0 mph SW3.2 kmh SW 9.0 mph14.5 kmh 29.73 in1006.8 mb 0.00 in0.0 mm 0.00 in/hr0.0 mm/hr 0.07 in1.8 mm
07:00 AM 56.4°F13.6°C 55.3°F12.9°C 96% 1.0 mph W1.6 kmh W 9.0 mph14.5 kmh 29.73 in1006.8 mb 0.00 in0.0 mm 0.00 in/hr0.0 mm/hr 0.07 in1.8 mm
07:10 AM 56.4°F13.6°C 55.3°F12.9°C 96% Calm Calm 10.0 mph16.1 kmh 29.74 in1007.1 mb 0.00 in0.0 mm 0.00 in/hr0.0 mm/hr 0.07 in1.8 mm
07:20 AM 56.4°F13.6°C 55.3°F12.9°C 96% 1.0 mph W1.6 kmh W 7.0 mph11.3 kmh 29.74 in1007.1 mb 0.00 in0.0 mm 0.00 in/hr0.0 mm/hr 0.07 in1.8 mm
07:30 AM 56.4°F13.6°C 55.3°F12.9°C 96% Calm Calm 6.0 mph9.7 kmh 29.75 in1007.5 mb 0.00 in0.0 mm 0.00 in/hr0.0 mm/hr 0.07 in1.8 mm
07:40 AM 56.4°F13.6°C 55.0°F12.8°C 95% Calm Calm 6.0 mph9.7 kmh 29.76 in1007.8 mb 0.00 in0.0 mm 0.00 in/hr0.0 mm/hr 0.07 in1.8 mm
07:50 AM 56.6°F13.7°C 55.5°F13.1°C 96% Calm Calm 5.0 mph8.0 kmh 29.76 in1007.8 mb 0.00 in0.0 mm 0.00 in/hr0.0 mm/hr 0.07 in1.8 mm
08:00 AM 56.8°F13.8°C 55.4°F13.0°C 95% 1.0 mph W1.6 kmh W 10.0 mph16.1 kmh 29.77 in1008.1 mb 0.00 in0.0 mm 0.00 in/hr0.0 mm/hr 0.07 in1.8 mm
08:10 AM 57.1°F13.9°C 55.7°F13.2°C 95% Calm Calm 11.0 mph17.7 kmh 29.77 in1008.1 mb 0.00 in0.0 mm 0.00 in/hr0.0 mm/hr 0.07 in1.8 mm
08:20 AM 57.4°F14.1°C 56.0°F13.3°C 95% 1.0 mph SW1.6 kmh SW 7.0 mph11.3 kmh 29.77 in1008.1 mb 0.00 in0.0 mm 0.00 in/hr0.0 mm/hr 0.07 in1.8 mm
08:30 AM 57.8°F14.3°C 56.1°F13.4°C 94% 2.0 mph SSW3.2 kmh SSW 11.0 mph17.7 kmh 29.78 in1008.5 mb 0.00 in0.0 mm 0.00 in/hr0.0 mm/hr 0.07 in1.8 mm
08:40 AM 58.6°F14.8°C 56.3°F13.5°C 92% 2.0 mph SW3.2 kmh SW 10.0 mph16.1 kmh 29.78 in1008.5 mb 0.00 in0.0 mm 0.00 in/hr0.0 mm/hr 0.07 in1.8 mm
08:50 AM 59.2°F15.1°C 56.3°F13.5°C 90% 3.0 mph SSW4.8 kmh SSW 10.0 mph16.1 kmh 29.80 in1009.1 mb 0.00 in0.0 mm 0.00 in/hr0.0 mm/hr 0.07 in1.8 mm
09:00 AM 59.9°F15.5°C 56.0°F13.3°C 87% 2.0 mph SSW3.2 kmh SSW 12.0 mph19.3 kmh 29.81 in1009.5 mb 0.00 in0.0 mm 0.00 in/hr0.0 mm/hr 0.07 in1.8 mm
09:10 AM 60.8°F16.0°C 56.3°F13.5°C 85% 2.0 mph NW3.2 kmh NW 9.0 mph14.5 kmh 29.81 in1009.5 mb 0.00 in0.0 mm 0.00 in/hr0.0 mm/hr 0.07 in1.8 mm
09:20 AM 61.5°F16.4°C 56.0°F13.3°C 82% 4.0 mph NNW6.4 kmh NNW 12.0 mph19.3 kmh 29.82 in1009.8 mb 0.00 in0.0 mm 0.00 in/hr0.0 mm/hr 0.07 in1.8 mm
09:30 AM 62.0°F16.7°C 55.8°F13.2°C 80% 4.0 mph N6.4 kmh N 12.0 mph19.3 kmh 29.82 in1009.8 mb 0.00 in0.0 mm 0.00 in/hr0.0 mm/hr 0.07 in1.8 mm
09:40 AM 62.9°F17.2°C 56.3°F13.5°C 79% 6.0 mph NW9.7 kmh NW 17.0 mph27.4 kmh 29.83 in1010.2 mb 0.00 in0.0 mm 0.00 in/hr0.0 mm/hr 0.07 in1.8 mm
09:50 AM 63.6°F17.6°C 55.5°F13.1°C 75% 7.0 mph NNW11.3 kmh NNW 18.0 mph29.0 kmh 29.84 in1010.5 mb 0.00 in0.0 mm 0.00 in/hr0.0 mm/hr 0.07 in1.8 mm
10:00 AM 64.4°F18.0°C 55.2°F12.9°C 72% 3.0 mph WNW4.8 kmh WNW 16.0 mph25.7 kmh 29.84 in1010.5 mb 0.00 in0.0 mm 0.00 in/hr0.0 mm/hr 0.07 in1.8 mm
10:10 AM 64.9°F18.3°C 54.5°F12.5°C 69% 3.0 mph N4.8 kmh N 13.0 mph20.9 kmh 29.84 in1010.5 mb 0.00 in0.0 mm 0.00 in/hr0.0 mm/hr 0.07 in1.8 mm
10:20 AM 64.7°F18.2°C 54.3°F12.4°C 69% 1.0 mph N1.6 kmh N 11.0 mph17.7 kmh 29.84 in1010.5 mb 0.00 in0.0 mm 0.00 in/hr0.0 mm/hr 0.07 in1.8 mm
10:30 AM 64.9°F18.3°C 54.5°F12.5°C 69% 2.0 mph W3.2 kmh W 11.0 mph17.7 kmh 29.85 in1010.8 mb 0.00 in0.0 mm 0.00 in/hr0.0 mm/hr 0.07 in1.8 mm
10:40 AM 65.0°F18.3°C 53.8°F12.1°C 67% 4.0 mph WNW6.4 kmh WNW 19.0 mph30.6 kmh 29.85 in1010.8 mb 0.00 in0.0 mm 0.00 in/hr0.0 mm/hr 0.07 in1.8 mm
10:50 AM 64.9°F18.3°C 54.1°F12.3°C 68% 3.0 mph N4.8 kmh N 13.0 mph20.9 kmh 29.85 in1010.8 mb 0.00 in0.0 mm 0.00 in/hr0.0 mm/hr 0.07 in1.8 mm
11:00 AM 64.7°F18.2°C 53.1°F11.7°C 66% Calm Calm 14.0 mph22.5 kmh 29.85 in1010.8 mb 0.00 in0.0 mm 0.00 in/hr0.0 mm/hr 0.07 in1.8 mm
11:10 AM 65.1°F18.4°C 54.3°F12.4°C 68% Calm Calm 15.0 mph24.1 kmh 29.84 in1010.5 mb 0.00 in0.0 mm 0.00 in/hr0.0 mm/hr 0.07 in1.8 mm
11:20 AM 65.7°F18.7°C 53.6°F12.0°C 65% 2.0 mph ESE3.2 kmh ESE 15.0 mph24.1 kmh 29.85 in1010.8 mb 0.00 in0.0 mm 0.00 in/hr0.0 mm/hr 0.07 in1.8 mm
11:30 AM 66.5°F19.2°C 53.5°F11.9°C 63% 4.0 mph NNW6.4 kmh NNW 14.0 mph22.5 kmh 29.85 in1010.8 mb 0.00 in0.0 mm 0.00 in/hr0.0 mm/hr 0.07 in1.8 mm
11:40 AM 66.6°F19.2°C 52.7°F11.5°C 61% 3.0 mph W4.8 kmh W 14.0 mph22.5 kmh 29.85 in1010.8 mb 0.00 in0.0 mm 0.00 in/hr0.0 mm/hr 0.07 in1.8 mm
11:50 AM 66.0°F18.9°C 52.2°F11.2°C 61% 5.0 mph NNW8.0 kmh NNW 16.0 mph25.7 kmh 29.86 in1011.2 mb 0.00 in0.0 mm 0.00 in/hr0.0 mm/hr 0.07 in1.8 mm
12:00 PM 65.7°F18.7°C 52.3°F11.3°C 62% 3.0 mph NW4.8 kmh NW 18.0 mph29.0 kmh 29.86 in1011.2 mb 0.00 in0.0 mm 0.00 in/hr0.0 mm/hr 0.07 in1.8 mm
12:10 PM 66.2°F19.0°C 51.5°F10.8°C 59% 1.0 mph WSW1.6 kmh WSW 14.0 mph22.5 kmh 29.87 in1011.5 mb 0.00 in0.0 mm 0.00 in/hr0.0 mm/hr 0.07 in1.8 mm
12:20 PM 67.0°F19.4°C 52.2°F11.2°C 59% 2.0 mph WNW3.2 kmh WNW 9.0 mph14.5 kmh 29.87 in1011.5 mb 0.00 in0.0 mm 0.00 in/hr0.0 mm/hr 0.07 in1.8 mm
12:30 PM 67.3°F19.6°C 52.0°F11.1°C 58% 3.0 mph NW4.8 kmh NW 13.0 mph20.9 kmh 29.87 in1011.5 mb 0.00 in0.0 mm 0.00 in/hr0.0 mm/hr 0.07 in1.8 mm
12:40 PM 68.0°F20.0°C 51.7°F10.9°C 56% 3.0 mph NW4.8 kmh NW 15.0 mph24.1 kmh 29.87 in1011.5 mb 0.00 in0.0 mm 0.00 in/hr0.0 mm/hr 0.07 in1.8 mm
12:50 PM 68.9°F20.5°C 52.1°F11.2°C 55% 5.0 mph N8.0 kmh N 10.0 mph16.1 kmh 29.87 in1011.5 mb 0.00 in0.0 mm 0.00 in/hr0.0 mm/hr 0.07 in1.8 mm
01:00 PM 68.9°F20.5°C 52.1°F11.2°C 55% 2.0 mph NNW3.2 kmh NNW 16.0 mph25.7 kmh 29.87 in1011.5 mb 0.00 in0.0 mm 0.00 in/hr0.0 mm/hr 0.07 in1.8 mm
01:10 PM 69.0°F20.6°C 52.2°F11.2°C 55% 3.0 mph N4.8 kmh N 11.0 mph17.7 kmh 29.88 in1011.9 mb 0.00 in0.0 mm 0.00 in/hr0.0 mm/hr 0.07 in1.8 mm
01:20 PM 68.9°F20.5°C 51.6°F10.9°C 54% 3.0 mph NW4.8 kmh NW 14.0 mph22.5 kmh 29.88 in1011.9 mb 0.00 in0.0 mm 0.00 in/hr0.0 mm/hr 0.07 in1.8 mm
01:30 PM 69.7°F20.9°C 52.3°F11.3°C 54% 3.0 mph N4.8 kmh N 11.0 mph17.7 kmh 29.88 in1011.9 mb 0.00 in0.0 mm 0.00 in/hr0.0 mm/hr 0.07 in1.8 mm
01:40 PM 68.9°F20.5°C 51.1°F10.6°C 53% 5.0 mph N8.0 kmh N 16.0 mph25.7 kmh 29.88 in1011.9 mb 0.00 in0.0 mm 0.00 in/hr0.0 mm/hr 0.07 in1.8 mm
01:50 PM 68.2°F20.1°C 50.4°F10.2°C 53% 4.0 mph NW6.4 kmh NW 13.0 mph20.9 kmh 29.89 in1012.2 mb 0.00 in0.0 mm 0.00 in/hr0.0 mm/hr 0.07 in1.8 mm
02:00 PM 67.5°F19.7°C 50.3°F10.2°C 54% 6.0 mph WNW9.7 kmh WNW 14.0 mph22.5 kmh 29.89 in1012.2 mb 0.00 in0.0 mm 0.00 in/hr0.0 mm/hr 0.07 in1.8 mm
02:10 PM 67.2°F19.6°C 51.0°F10.6°C 56% 2.0 mph N3.2 kmh N 12.0 mph19.3 kmh 29.89 in1012.2 mb 0.00 in0.0 mm 0.00 in/hr0.0 mm/hr 0.07 in1.8 mm
02:20 PM 67.0°F19.4°C 51.3°F10.7°C 57% 1.0 mph NW1.6 kmh NW 13.0 mph20.9 kmh 29.89 in1012.2 mb 0.00 in0.0 mm 0.00 in/hr0.0 mm/hr 0.07 in1.8 mm
02:30 PM 66.6°F19.2°C 49.5°F9.7°C 54% 6.0 mph NNW9.7 kmh NNW 13.0 mph20.9 kmh 29.90 in1012.5 mb 0.00 in0.0 mm 0.00 in/hr0.0 mm/hr 0.07 in1.8 mm
02:40 PM 65.9°F18.8°C 49.8°F9.9°C 56% 6.0 mph NE9.7 kmh NE 13.0 mph20.9 kmh 29.90 in1012.5 mb 0.00 in0.0 mm 0.00 in/hr0.0 mm/hr 0.07 in1.8 mm
02:50 PM 65.8°F18.8°C 49.2°F9.6°C 55% 1.0 mph NW1.6 kmh NW 18.0 mph29.0 kmh 29.90 in1012.5 mb 0.00 in0.0 mm 0.00 in/hr0.0 mm/hr 0.07 in1.8 mm
03:00 PM 66.1°F18.9°C 49.5°F9.7°C 55% 2.0 mph NNW3.2 kmh NNW 18.0 mph29.0 kmh 29.90 in1012.5 mb 0.00 in0.0 mm 0.00 in/hr0.0 mm/hr 0.07 in1.8 mm
03:10 PM 66.6°F19.2°C 49.0°F9.4°C 53% 4.0 mph NNW6.4 kmh NNW 15.0 mph24.1 kmh 29.91 in1012.9 mb 0.00 in0.0 mm 0.00 in/hr0.0 mm/hr 0.07 in1.8 mm
03:20 PM 66.3°F19.1°C 48.2°F9.0°C 52% 2.0 mph NW3.2 kmh NW 14.0 mph22.5 kmh 29.91 in1012.9 mb 0.00 in0.0 mm 0.00 in/hr0.0 mm/hr 0.07 in1.8 mm
03:30 PM 66.2°F19.0°C 48.6°F9.2°C 53% 2.0 mph N3.2 kmh N 17.0 mph27.4 kmh 29.91 in1012.9 mb 0.00 in0.0 mm 0.00 in/hr0.0 mm/hr 0.07 in1.8 mm
03:40 PM 66.2°F19.0°C 48.6°F9.2°C 53% 5.0 mph WSW8.0 kmh WSW 12.0 mph19.3 kmh 29.92 in1013.2 mb 0.00 in0.0 mm 0.00 in/hr0.0 mm/hr 0.07 in1.8 mm
03:50 PM 65.8°F18.8°C 47.2°F8.4°C 51% 4.0 mph NNW6.4 kmh NNW 21.0 mph33.8 kmh 29.92 in1013.2 mb 0.00 in0.0 mm 0.00 in/hr0.0 mm/hr 0.07 in1.8 mm
04:00 PM 65.3°F18.5°C 47.7°F8.7°C 53% 4.0 mph WSW6.4 kmh WSW 17.0 mph27.4 kmh 29.92 in1013.2 mb 0.00 in0.0 mm 0.00 in/hr0.0 mm/hr 0.07 in1.8 mm
04:10 PM 64.7°F18.2°C 48.7°F9.3°C 56% 4.0 mph N6.4 kmh N 12.0 mph19.3 kmh 29.93 in1013.5 mb 0.00 in0.0 mm 0.00 in/hr0.0 mm/hr 0.07 in1.8 mm
04:20 PM 64.0°F17.8°C 48.0°F8.9°C 56% 6.0 mph NNW9.7 kmh NNW 15.0 mph24.1 kmh 29.93 in1013.5 mb 0.00 in0.0 mm 0.00 in/hr0.0 mm/hr 0.07 in1.8 mm
04:30 PM 63.5°F17.5°C 47.5°F8.6°C 56% 1.0 mph N1.6 kmh N 14.0 mph22.5 kmh 29.93 in1013.5 mb 0.00 in0.0 mm 0.00 in/hr0.0 mm/hr 0.07 in1.8 mm
04:40 PM 63.2°F17.3°C 46.8°F8.2°C 55% 5.0 mph NNW8.0 kmh NNW 14.0 mph22.5 kmh 29.93 in1013.5 mb 0.00 in0.0 mm 0.00 in/hr0.0 mm/hr 0.07 in1.8 mm
04:50 PM 62.9°F17.2°C 47.9°F8.8°C 58% 2.0 mph NW3.2 kmh NW 12.0 mph19.3 kmh 29.93 in1013.5 mb 0.00 in0.0 mm 0.00 in/hr0.0 mm/hr 0.07 in1.8 mm
05:00 PM 62.5°F16.9°C 47.5°F8.6°C 58% 3.0 mph NNW4.8 kmh NNW 12.0 mph19.3 kmh 29.94 in1013.9 mb 0.00 in0.0 mm 0.00 in/hr0.0 mm/hr 0.07 in1.8 mm
05:10 PM 62.2°F16.8°C 46.3°F7.9°C 56% 2.0 mph NNW3.2 kmh NNW 13.0 mph20.9 kmh 29.94 in1013.9 mb 0.00 in0.0 mm 0.00 in/hr0.0 mm/hr 0.07 in1.8 mm
05:20 PM 62.0°F16.7°C 46.6°F8.1°C 57% 1.0 mph NNW1.6 kmh NNW 12.0 mph19.3 kmh 29.95 in1014.2 mb 0.00 in0.0 mm 0.00 in/hr0.0 mm/hr 0.07 in1.8 mm
05:30 PM 61.7°F16.5°C 46.8°F8.2°C 58% 3.0 mph NNW4.8 kmh NNW 12.0 mph19.3 kmh 29.96 in1014.6 mb 0.00 in0.0 mm 0.00 in/hr0.0 mm/hr 0.07 in1.8 mm
05:40 PM 61.4°F16.3°C 46.0°F7.8°C 57% 2.0 mph 3.2 kmh 15.0 mph24.1 kmh 29.96 in1014.6 mb 0.00 in0.0 mm 0.00 in/hr0.0 mm/hr 0.07 in1.8 mm
05:50 PM 61.1°F16.2°C 46.7°F8.2°C 59% 1.0 mph NNW1.6 kmh NNW 6.0 mph9.7 kmh 29.97 in1014.9 mb 0.00 in0.0 mm 0.00 in/hr0.0 mm/hr 0.07 in1.8 mm
06:00 PM 60.7°F15.9°C 45.8°F7.7°C 58% 1.0 mph NNW1.6 kmh NNW 16.0 mph25.7 kmh 29.97 in1014.9 mb 0.00 in0.0 mm 0.00 in/hr0.0 mm/hr 0.07 in1.8 mm
06:10 PM 60.3°F15.7°C 45.0°F7.2°C 57% 2.0 mph W3.2 kmh W 10.0 mph16.1 kmh 29.99 in1015.6 mb 0.00 in0.0 mm 0.00 in/hr0.0 mm/hr 0.07 in1.8 mm
06:20 PM 60.0°F15.6°C 45.2°F7.3°C 58% Calm Calm 6.0 mph9.7 kmh 29.99 in1015.6 mb 0.00 in0.0 mm 0.00 in/hr0.0 mm/hr 0.07 in1.8 mm
06:30 PM 59.6°F15.3°C 44.8°F7.1°C 58% 2.0 mph NW3.2 kmh NW 11.0 mph17.7 kmh 30.00 in1015.9 mb 0.00 in0.0 mm 0.00 in/hr0.0 mm/hr 0.07 in1.8 mm
06:40 PM 59.2°F15.1°C 45.3°F7.4°C 60% 2.0 mph N3.2 kmh N 10.0 mph16.1 kmh 30.00 in1015.9 mb 0.00 in0.0 mm 0.00 in/hr0.0 mm/hr 0.07 in1.8 mm
06:50 PM 59.0°F15.0°C 45.1°F7.3°C 60% 1.0 mph N1.6 kmh N 10.0 mph16.1 kmh 30.00 in1015.9 mb 0.00 in0.0 mm 0.00 in/hr0.0 mm/hr 0.07 in1.8 mm
07:00 PM 58.3°F14.6°C 44.9°F7.2°C 61% 1.0 mph NW1.6 kmh NW 9.0 mph14.5 kmh 30.00 in1015.9 mb 0.00 in0.0 mm 0.00 in/hr0.0 mm/hr 0.07 in1.8 mm
07:10 PM 57.8°F14.3°C 44.0°F6.7°C 60% Calm Calm 7.0 mph11.3 kmh 30.01 in1016.3 mb 0.00 in0.0 mm 0.00 in/hr0.0 mm/hr 0.07 in1.8 mm
07:20 PM 57.3°F14.1°C 44.0°F6.7°C 61% Calm Calm 7.0 mph11.3 kmh 30.02 in1016.6 mb 0.00 in0.0 mm 0.00 in/hr0.0 mm/hr 0.07 in1.8 mm
07:30 PM 57.1°F13.9°C 44.2°F6.8°C 62% Calm Calm 5.0 mph8.0 kmh 30.03 in1016.9 mb 0.00 in0.0 mm 0.00 in/hr0.0 mm/hr 0.07 in1.8 mm
07:40 PM 56.8°F13.8°C 44.8°F7.1°C 64% Calm Calm 1.0 mph1.6 kmh 30.04 in1017.3 mb 0.00 in0.0 mm 0.00 in/hr0.0 mm/hr 0.07 in1.8 mm
07:50 PM 56.3°F13.5°C 43.9°F6.6°C 63% Calm Calm 4.0 mph6.4 kmh 30.05 in1017.6 mb 0.00 in0.0 mm 0.00 in/hr0.0 mm/hr 0.07 in1.8 mm
08:00 PM 56.0°F13.3°C 44.4°F6.9°C 65% 1.0 mph N1.6 kmh N 4.0 mph6.4 kmh 30.05 in1017.6 mb 0.00 in0.0 mm 0.00 in/hr0.0 mm/hr 0.07 in1.8 mm
08:10 PM 55.5°F13.1°C 43.9°F6.6°C 65% Calm Calm 1.0 mph1.6 kmh 30.06 in1017.9 mb 0.00 in0.0 mm 0.00 in/hr0.0 mm/hr 0.07 in1.8 mm
08:20 PM 55.1°F12.8°C 43.6°F6.4°C 65% 1.0 mph NW1.6 kmh NW 4.0 mph6.4 kmh 30.07 in1018.3 mb 0.00 in0.0 mm 0.00 in/hr0.0 mm/hr 0.07 in1.8 mm
08:30 PM 54.9°F12.7°C 43.4°F6.3°C 65% 1.0 mph NE1.6 kmh NE 3.0 mph4.8 kmh 30.07 in1018.3 mb 0.00 in0.0 mm 0.00 in/hr0.0 mm/hr 0.07 in1.8 mm
08:40 PM 54.8°F12.7°C 42.9°F6.1°C 64% 2.0 mph NNW3.2 kmh NNW 6.0 mph9.7 kmh 30.08 in1018.6 mb 0.00 in0.0 mm 0.00 in/hr0.0 mm/hr 0.07 in1.8 mm
08:50 PM 54.8°F12.7°C 43.7°F6.5°C 66% 2.0 mph NW3.2 kmh NW 6.0 mph9.7 kmh 30.09 in1019.0 mb 0.00 in0.0 mm 0.00 in/hr0.0 mm/hr 0.07 in1.8 mm
09:00 PM 54.7°F12.6°C 43.6°F6.4°C 66% 2.0 mph N3.2 kmh N 9.0 mph14.5 kmh 30.09 in1019.0 mb 0.00 in0.0 mm 0.00 in/hr0.0 mm/hr 0.07 in1.8 mm
09:10 PM 54.7°F12.6°C 42.8°F6.0°C 64% 2.0 mph NNW3.2 kmh NNW 15.0 mph24.1 kmh 30.10 in1019.3 mb 0.00 in0.0 mm 0.00 in/hr0.0 mm/hr 0.07 in1.8 mm
09:20 PM 54.7°F12.6°C 42.4°F5.8°C 63% 1.0 mph W1.6 kmh W 6.0 mph9.7 kmh 30.09 in1019.0 mb 0.00 in0.0 mm 0.00 in/hr0.0 mm/hr 0.07 in1.8 mm
09:30 PM 54.6°F12.6°C 42.3°F5.7°C 63% 4.0 mph N6.4 kmh N 12.0 mph19.3 kmh 30.10 in1019.3 mb 0.00 in0.0 mm 0.00 in/hr0.0 mm/hr 0.07 in1.8 mm
09:40 PM 54.4°F12.4°C 42.5°F5.8°C 64% Calm Calm 9.0 mph14.5 kmh 30.10 in1019.3 mb 0.00 in0.0 mm 0.00 in/hr0.0 mm/hr 0.07 in1.8 mm
09:50 PM 54.2°F12.3°C 42.7°F5.9°C 65% Calm Calm 3.0 mph4.8 kmh 30.11 in1019.6 mb 0.00 in0.0 mm 0.00 in/hr0.0 mm/hr 0.07 in1.8 mm
10:00 PM 53.8°F12.1°C 42.7°F5.9°C 66% Calm Calm 1.0 mph1.6 kmh 30.11 in1019.6 mb 0.00 in0.0 mm 0.00 in/hr0.0 mm/hr 0.07 in1.8 mm
10:10 PM 53.3°F11.8°C 42.2°F5.7°C 66% Calm Calm 3.0 mph4.8 kmh 30.12 in1020.0 mb 0.00 in0.0 mm 0.00 in/hr0.0 mm/hr 0.07 in1.8 mm
10:20 PM 53.0°F11.7°C 42.7°F5.9°C 68% Calm Calm 2.0 mph3.2 kmh 30.13 in1020.3 mb 0.00 in0.0 mm 0.00 in/hr0.0 mm/hr 0.07 in1.8 mm
10:30 PM 52.6°F11.4°C 42.3°F5.7°C 68% Calm Calm 1.0 mph1.6 kmh 30.13 in1020.3 mb 0.00 in0.0 mm 0.00 in/hr0.0 mm/hr 0.07 in1.8 mm
10:40 PM 52.0°F11.1°C 42.2°F5.7°C 69% Calm Calm 1.0 mph1.6 kmh 30.13 in1020.3 mb 0.00 in0.0 mm 0.00 in/hr0.0 mm/hr 0.07 in1.8 mm
10:50 PM 51.6°F10.9°C 42.1°F5.6°C 70% Calm Calm -- 30.13 in1020.3 mb 0.00 in0.0 mm 0.00 in/hr0.0 mm/hr 0.07 in1.8 mm
11:00 PM 51.1°F10.6°C 42.0°F5.6°C 71% 1.0 mph W1.6 kmh W 6.0 mph9.7 kmh 30.14 in1020.7 mb 0.00 in0.0 mm 0.00 in/hr0.0 mm/hr 0.07 in1.8 mm
11:10 PM 50.7°F10.4°C 42.0°F5.6°C 72% Calm Calm 4.0 mph6.4 kmh 30.13 in1020.3 mb 0.00 in0.0 mm 0.00 in/hr0.0 mm/hr 0.07 in1.8 mm
11:20 PM 50.4°F10.2°C 41.7°F5.4°C 72% 1.0 mph W1.6 kmh W 5.0 mph8.0 kmh 30.13 in1020.3 mb 0.00 in0.0 mm 0.00 in/hr0.0 mm/hr 0.07 in1.8 mm
11:30 PM 50.5°F10.3°C 41.8°F5.4°C 72% Calm Calm 1.0 mph1.6 kmh 30.13 in1020.3 mb 0.00 in0.0 mm 0.00 in/hr0.0 mm/hr 0.07 in1.8 mm
11:40 PM 50.5°F10.3°C 41.8°F5.4°C 72% Calm Calm 1.0 mph1.6 kmh 30.14 in1020.7 mb 0.00 in0.0 mm 0.00 in/hr0.0 mm/hr 0.07 in1.8 mm
11:50 PM 50.4°F10.2°C 41.7°F5.4°C 72% Calm Calm 2.0 mph3.2 kmh 30.14 in1020.7 mb 0.00 in0.0 mm 0.00 in/hr0.0 mm/hr 0.07 in1.8 mm